createdAt,value
2023-05-18T00:02:08.623Z,10.95
2023-05-18T00:04:36.339Z,10.90
2023-05-18T00:07:04.269Z,10.85
2023-05-18T00:09:32.723Z,10.80
2023-05-18T00:12:00.144Z,10.72
2023-05-18T00:14:27.465Z,10.63
2023-05-18T00:16:54.889Z,10.56
2023-05-18T00:19:24.245Z,10.48
2023-05-18T00:21:52.767Z,10.41
2023-05-18T00:24:19.657Z,10.33
2023-05-18T00:26:47.234Z,10.27
2023-05-18T00:29:14.220Z,10.24
2023-05-18T00:31:42.401Z,10.19
2023-05-18T00:34:10.112Z,10.16
2023-05-18T00:36:37.634Z,10.12
2023-05-18T00:39:05.085Z,10.11
2023-05-18T00:41:32.124Z,10.08
2023-05-18T00:44:00.176Z,10.08
2023-05-18T00:46:28.175Z,10.09
2023-05-18T00:48:57.318Z,10.08
2023-05-18T00:51:24.714Z,10.07
2023-05-18T00:53:52.812Z,10.05
2023-05-18T00:56:20.099Z,10.03
2023-05-18T00:58:48.406Z,10.00
2023-05-18T01:01:17.994Z,9.92
2023-05-18T01:03:45.066Z,9.85
2023-05-18T01:06:13.022Z,9.77
2023-05-18T01:08:42.036Z,9.71
2023-05-18T01:11:39.010Z,9.70
2023-05-18T01:14:20.299Z,9.70
2023-05-18T01:17:10.594Z,9.69
2023-05-18T01:19:52.603Z,9.70
2023-05-18T01:22:44.772Z,9.67
2023-05-18T01:25:19.511Z,9.60
2023-05-18T01:27:46.800Z,9.51
2023-05-18T01:30:16.248Z,9.44
2023-05-18T01:32:43.479Z,9.41
2023-05-18T01:35:10.482Z,9.44
2023-05-18T01:37:37.647Z,9.48
2023-05-18T01:40:06.053Z,9.48
2023-05-18T01:42:34.620Z,9.48
2023-05-18T01:45:04.111Z,9.44
2023-05-18T01:47:31.777Z,9.39
2023-05-18T01:50:15.261Z,9.37
2023-05-18T01:52:58.130Z,9.34
2023-05-18T01:55:25.308Z,9.33
2023-05-18T01:57:52.269Z,9.31
2023-05-18T02:00:19.934Z,9.23
2023-05-18T02:02:47.423Z,9.15
2023-05-18T02:05:14.904Z,9.09
2023-05-18T02:07:44.164Z,9.04
2023-05-18T02:10:11.985Z,8.99
2023-05-18T02:12:39.032Z,8.97
2023-05-18T02:15:07.300Z,8.95
2023-05-18T02:17:38.255Z,8.93
2023-05-18T02:20:10.291Z,8.91
2023-05-18T02:22:37.449Z,8.94
2023-05-18T02:25:05.793Z,8.96
2023-05-18T02:27:33.599Z,8.97
2023-05-18T02:30:00.762Z,8.95
2023-05-18T02:32:28.198Z,8.93
2023-05-18T02:34:55.288Z,8.93
2023-05-18T02:37:23.270Z,8.96
2023-05-18T02:39:50.812Z,9.00
2023-05-18T02:42:17.828Z,9.05
2023-05-18T02:44:44.753Z,9.12
2023-05-18T02:47:14.348Z,9.20
2023-05-18T02:49:41.316Z,9.27
2023-05-18T02:52:09.134Z,9.32
2023-05-18T02:54:36.409Z,9.34
2023-05-18T02:57:03.917Z,9.33
2023-05-18T02:59:43.816Z,9.32
2023-05-18T03:02:14.460Z,9.32
2023-05-18T03:04:42.339Z,9.36
2023-05-18T03:07:10.672Z,9.41
2023-05-18T03:09:38.210Z,9.49
2023-05-18T03:12:06.479Z,9.56
2023-05-18T03:14:34.498Z,9.66
2023-05-18T03:17:01.829Z,9.75
2023-05-18T03:19:29.297Z,9.83
2023-05-18T03:21:58.072Z,9.89
2023-05-18T03:24:26.769Z,9.95
2023-05-18T03:26:55.284Z,10.02
2023-05-18T03:29:22.855Z,10.12
2023-05-18T03:31:50.364Z,10.23
2023-05-18T03:34:18.176Z,10.33
2023-05-18T03:36:47.587Z,10.43
2023-05-18T03:39:14.983Z,10.53
2023-05-18T03:41:41.929Z,10.64
2023-05-18T03:44:09.440Z,10.74
2023-05-18T03:46:36.811Z,10.86
2023-05-18T03:49:05.230Z,11.01
2023-05-18T03:51:36.641Z,11.16
2023-05-18T03:54:04.092Z,11.32
2023-05-18T03:56:31.853Z,11.47
2023-05-18T03:58:59.038Z,11.63
2023-05-18T04:01:26.292Z,11.78
2023-05-18T04:03:56.762Z,11.92
2023-05-18T04:06:26.313Z,12.07
2023-05-18T04:08:53.674Z,12.21
2023-05-18T04:11:21.618Z,12.35
2023-05-18T04:13:50.061Z,12.50
2023-05-18T04:16:17.204Z,12.66
2023-05-18T04:18:44.514Z,12.82
2023-05-18T04:21:11.911Z,12.99
2023-05-18T04:23:39.213Z,13.17
2023-05-18T04:26:06.960Z,13.37
2023-05-18T04:28:34.072Z,13.58
2023-05-18T04:31:01.898Z,13.81
2023-05-18T04:33:29.671Z,14.03
2023-05-18T04:35:58.870Z,14.26
2023-05-18T04:38:26.219Z,14.48
2023-05-18T04:40:54.041Z,14.69
2023-05-18T04:43:21.357Z,14.93
2023-05-18T04:45:50.881Z,15.15
2023-05-18T04:48:19.322Z,15.38
2023-05-18T04:50:47.220Z,15.60
2023-05-18T04:53:18.204Z,15.84
2023-05-18T04:55:46.292Z,16.10
2023-05-18T04:58:13.480Z,16.35
2023-05-18T05:00:40.445Z,16.62
2023-05-18T05:03:07.564Z,16.88
2023-05-18T05:05:35.097Z,17.13
2023-05-18T05:08:02.282Z,17.37
2023-05-18T05:10:29.977Z,17.60
2023-05-18T05:12:57.018Z,17.81
2023-05-18T05:15:24.571Z,18.01
2023-05-18T05:17:51.827Z,18.19
2023-05-18T05:20:19.015Z,18.39
2023-05-18T05:22:46.162Z,18.59
2023-05-18T05:25:17.021Z,18.78
2023-05-18T05:27:44.868Z,18.98
2023-05-18T05:30:13.272Z,19.17
2023-05-18T05:32:43.352Z,19.36
2023-05-18T05:35:22.432Z,19.56
2023-05-18T05:38:24.107Z,19.76
2023-05-18T05:41:11.975Z,19.99
2023-05-18T05:43:40.366Z,20.16
2023-05-18T05:47:02.570Z,20.32
2023-05-18T05:49:46.460Z,20.52
2023-05-18T05:52:29.270Z,20.65
2023-05-18T05:55:28.608Z,20.80
2023-05-18T05:58:40.231Z,20.98
2023-05-18T06:01:32.562Z,21.15
2023-05-18T06:04:13.096Z,21.31
2023-05-18T06:06:40.129Z,21.44
2023-05-18T06:09:08.168Z,21.58
2023-05-18T06:11:37.260Z,21.70
2023-05-18T06:14:21.651Z,21.83
2023-05-18T06:17:10.350Z,21.97
2023-05-18T06:24:57.532Z,22.25
2023-05-18T06:36:19.952Z,22.72
2023-05-18T06:39:30.968Z,22.88
2023-05-18T06:42:12.840Z,23.03
2023-05-18T06:44:52.869Z,23.13
2023-05-18T06:47:27.387Z,23.21
2023-05-18T06:49:55.926Z,23.31
2023-05-18T06:52:29.473Z,23.43
2023-05-18T06:55:01.400Z,23.53
2023-05-18T06:57:29.253Z,23.63
2023-05-18T06:59:57.160Z,23.71
2023-05-18T07:02:25.780Z,23.78
2023-05-18T07:04:53.205Z,23.85
2023-05-18T07:07:20.715Z,23.94
2023-05-18T07:09:50.015Z,24.04
2023-05-18T07:12:17.957Z,24.13
2023-05-18T07:14:45.248Z,24.21
2023-05-18T07:17:12.210Z,24.31
2023-05-18T07:19:45.317Z,24.38
2023-05-18T07:22:12.340Z,24.45
2023-05-18T07:24:39.282Z,24.52
2023-05-18T07:27:06.328Z,24.58
2023-05-18T07:29:34.353Z,24.59
2023-05-18T07:32:01.643Z,24.65
2023-05-18T07:34:28.610Z,24.75
2023-05-18T07:36:56.340Z,24.82
2023-05-18T07:39:28.695Z,24.87
2023-05-18T07:41:56.052Z,24.88
2023-05-18T07:44:27.730Z,24.89
2023-05-18T07:46:56.705Z,24.94
2023-05-18T07:49:23.853Z,25.01
2023-05-18T07:51:59.740Z,25.07
2023-05-18T07:54:30.970Z,25.11
2023-05-18T07:57:01.003Z,25.17
2023-05-18T07:59:31.291Z,25.24
2023-05-18T08:02:02.601Z,25.29
2023-05-18T08:04:31.978Z,25.34
2023-05-18T08:07:18.122Z,25.37
2023-05-18T08:14:12.038Z,25.44
2023-05-18T08:17:05.675Z,25.53
2023-05-18T08:24:01.222Z,25.69
2023-05-18T08:26:47.626Z,25.75
2023-05-18T08:29:16.284Z,25.85
2023-05-18T08:32:26.558Z,25.92
2023-05-18T08:35:44.509Z,25.98
2023-05-18T08:39:06.633Z,26.08
2023-05-18T08:42:50.745Z,26.12
2023-05-18T08:45:39.933Z,26.11
2023-05-18T08:48:29.578Z,26.22
2023-05-18T08:54:27.159Z,26.47
2023-05-18T08:57:25.716Z,26.52
2023-05-18T09:10:36.084Z,26.98
2023-05-18T09:13:25.914Z,27.04
2023-05-18T09:16:52.503Z,27.09
2023-05-18T09:20:28.545Z,27.09
2023-05-18T09:23:36.844Z,27.11
2023-05-18T09:26:38.118Z,27.10
2023-05-18T09:30:34.563Z,27.06
2023-05-18T09:33:18.590Z,27.09
2023-05-18T09:35:47.838Z,27.08
2023-05-18T09:38:28.477Z,27.10
2023-05-18T09:41:21.992Z,27.08
2023-05-18T09:44:28.613Z,26.95
2023-05-18T09:47:54.553Z,26.87
2023-05-18T09:50:35.341Z,26.89
2023-05-18T09:53:03.608Z,26.93
2023-05-18T09:55:31.016Z,26.98
2023-05-18T09:57:58.410Z,27.00
2023-05-18T10:00:27.403Z,26.95
2023-05-18T10:02:56.600Z,26.86
2023-05-18T10:05:27.355Z,26.83
2023-05-18T10:07:58.413Z,26.85
2023-05-18T10:10:37.221Z,26.92
2023-05-18T10:13:05.176Z,27.00
2023-05-18T10:15:33.554Z,27.04
2023-05-18T10:18:00.991Z,27.08
2023-05-18T10:20:28.550Z,27.14
2023-05-18T10:22:56.249Z,27.22
2023-05-18T10:25:24.038Z,27.23
2023-05-18T10:27:51.859Z,27.16
2023-05-18T10:30:19.002Z,27.08
2023-05-18T10:32:46.404Z,26.96
2023-05-18T10:35:14.203Z,26.93
2023-05-18T10:37:44.430Z,27.19
2023-05-18T10:40:12.870Z,27.57
2023-05-18T10:42:40.034Z,27.79
2023-05-18T10:45:07.714Z,27.90
2023-05-18T10:47:36.385Z,27.83
2023-05-18T10:50:03.606Z,27.67
2023-05-18T10:52:31.975Z,27.63
2023-05-18T10:55:00.654Z,27.75
2023-05-18T10:57:35.442Z,27.87
2023-05-18T11:00:09.522Z,27.85
2023-05-18T11:02:40.305Z,27.69
2023-05-18T11:05:07.796Z,27.51
2023-05-18T11:07:35.051Z,27.32
2023-05-18T11:10:03.081Z,27.12
2023-05-18T11:12:33.040Z,26.94
2023-05-18T11:15:01.100Z,26.77
2023-05-18T11:17:31.319Z,26.63
2023-05-18T11:20:11.938Z,26.65
2023-05-18T11:22:45.853Z,26.81
2023-05-18T11:25:28.352Z,27.00
2023-05-18T11:27:55.979Z,27.18
2023-05-18T11:30:40.442Z,27.25
2023-05-18T11:33:28.204Z,27.36
2023-05-18T11:36:15.136Z,27.47
2023-05-18T11:39:04.918Z,27.48
2023-05-18T11:41:35.708Z,27.41
2023-05-18T11:44:11.821Z,27.23
2023-05-18T11:46:54.304Z,27.08
2023-05-18T11:49:23.636Z,26.98
2023-05-18T11:52:04.462Z,27.03
2023-05-18T11:54:43.518Z,27.10
2023-05-18T11:57:11.112Z,27.13
2023-05-18T11:59:39.783Z,27.15
2023-05-18T12:02:06.771Z,27.22
2023-05-18T12:04:34.312Z,27.35
2023-05-18T12:07:04.806Z,27.50
2023-05-18T12:09:32.206Z,27.72
2023-05-18T12:11:59.199Z,27.87
2023-05-18T12:14:26.126Z,27.83
2023-05-18T12:16:53.191Z,27.70
2023-05-18T12:19:20.422Z,27.60
2023-05-18T12:21:47.716Z,27.46
2023-05-18T12:24:15.294Z,27.32
2023-05-18T12:26:42.466Z,27.25
2023-05-18T12:29:11.441Z,27.36
2023-05-18T12:31:41.306Z,27.60
2023-05-18T12:34:09.777Z,27.73
2023-05-18T12:36:41.835Z,27.70
2023-05-18T12:39:09.159Z,27.59
2023-05-18T12:41:36.153Z,27.49
2023-05-18T12:44:04.867Z,27.40
2023-05-18T12:46:32.037Z,27.33
2023-05-18T12:49:01.603Z,27.25
2023-05-18T12:51:39.007Z,27.21
2023-05-18T12:54:06.854Z,27.24
2023-05-18T12:56:53.213Z,27.31
2023-05-18T12:59:20.223Z,27.44
2023-05-18T13:01:47.340Z,27.57
2023-05-18T13:04:14.487Z,27.66
2023-05-18T13:06:42.231Z,27.61
2023-05-18T13:09:12.438Z,27.47
2023-05-18T13:11:39.550Z,27.25
2023-05-18T13:14:07.870Z,27.02
2023-05-18T13:16:37.421Z,26.83
2023-05-18T13:19:07.048Z,26.64
2023-05-18T13:21:34.700Z,26.47
2023-05-18T13:24:02.643Z,26.33
2023-05-18T13:26:29.568Z,26.23
